Time;durP1;ratioP1;P1;durP2;ratioP2;P2;SDS_P1;SDS_P2;PMS_P1;PMS_P2;Temp;Humidity;BMP_temperature;BMP_pressure;BME280_temperature;BME280_humidity;BME280_pressure;Samples;Min_cycle;Max_cycle;Signal;HPM_P1;HPM_P2
2023/03/14 00:00:22;;;;;;;14.27;3.57;;;;;;;6.30;44.75;99470.44;6071320;23;20226;-89
2023/03/14 00:02:54;;;;;;;12.60;4.30;;;;;;;6.23;44.79;99464.59;6097408;23;20153;-88
2023/03/14 00:05:19;;;;;;;9.47;4.47;;;;;;;6.14;44.97;99455.28;6072548;23;20612;-88
2023/03/14 00:07:46;;;;;;;13.20;4.17;;;;;;;6.08;45.58;99446.81;6098517;23;20152;-89
2023/03/14 00:10:14;;;;;;;10.20;4.50;;;;;;;6.04;45.65;99440.88;6098902;23;20164;-89
2023/03/14 00:12:45;;;;;;;11.20;4.63;;;;;;;5.99;45.86;99437.53;6073529;23;20160;-89
2023/03/14 00:15:12;;;;;;;7.60;3.90;;;;;;;5.96;46.08;99434.16;6098971;23;20133;-89
2023/03/14 00:17:39;;;;;;;10.70;3.17;;;;;;;6.06;45.31;99448.59;6073621;23;20470;-89
2023/03/14 00:20:10;;;;;;;6.53;3.23;;;;;;;6.18;45.03;99446.50;6073250;23;20152;-88
2023/03/14 00:22:37;;;;;;;8.63;3.53;;;;;;;6.07;44.80;99447.72;6098832;23;20143;-89
2023/03/14 00:25:04;;;;;;;6.47;2.93;;;;;;;6.05;44.31;99449.53;6098332;23;20180;-89
2023/03/14 00:27:30;;;;;;;6.53;2.73;;;;;;;6.00;44.47;99448.81;6098339;23;20247;-89
2023/03/14 00:29:58;;;;;;;7.33;3.27;;;;;;;5.94;44.82;99443.78;6073445;23;20178;-89
2023/03/14 00:32:25;;;;;;;8.57;2.77;;;;;;;5.80;45.13;99451.06;6098339;23;20168;-89
2023/03/14 00:34:50;;;;;;;6.53;2.80;;;;;;;5.70;45.69;99449.63;6098699;23;20158;-89
2023/03/14 00:37:17;;;;;;;6.73;2.40;;;;;;;5.67;45.85;99441.91;6098306;23;20168;-89
2023/03/14 00:39:43;;;;;;;5.50;2.33;;;;;;;5.52;46.63;99444.06;6098648;23;20642;-90
2023/03/14 00:42:10;;;;;;;9.67;2.50;;;;;;;5.49;46.98;99431.13;6098213;23;20233;-89
2023/03/14 00:44:36;;;;;;;8.43;2.50;;;;;;;5.53;47.12;99426.69;6098192;23;20278;-90
2023/03/14 00:47:02;;;;;;;8.70;3.60;;;;;;;5.53;47.35;99427.53;6098214;23;20575;-89
2023/03/14 00:49:27;;;;;;;14.73;4.57;;;;;;;5.58;46.76;99427.44;6098504;23;20149;-89
2023/03/14 00:51:53;;;;;;;8.97;4.40;;;;;;;5.59;46.62;99427.38;6098155;23;20161;-90
2023/03/14 00:54:20;;;;;;;25.67;4.37;;;;;;;5.65;46.81;99423.78;6072881;23;20568;-89
2023/03/14 00:56:48;;;;;;;9.47;4.33;;;;;;;5.72;46.06;99421.81;6098346;23;20582;-89
2023/03/14 00:59:13;;;;;;;8.77;4.00;;;;;;;5.65;46.92;99415.09;6072818;23;20165;-89
2023/03/14 01:01:40;;;;;;;7.27;3.43;;;;;;;5.54;46.58;99413.66;6072758;23;20163;-89
2023/03/14 01:04:06;;;;;;;31.50;4.93;;;;;;;5.47;46.89;99406.94;6072760;23;20223;-89
2023/03/14 01:06:33;;;;;;;9.33;5.07;;;;;;;5.42;46.91;99401.00;6097721;23;20779;-89
2023/03/14 01:08:59;;;;;;;11.87;4.10;;;;;;;5.35;47.28;99404.66;6097985;23;20216;-89
2023/03/14 01:11:34;;;;;;;11.13;4.63;;;;;;;5.32;47.07;99396.94;6072717;23;20559;-89
2023/03/14 01:14:02;;;;;;;10.10;4.40;;;;;;;5.43;46.12;99394.91;6098254;23;20163;-89
2023/03/14 01:16:32;;;;;;;11.37;4.13;;;;;;;5.59;46.20;99393.59;6097547;23;20213;-89
2023/03/14 01:18:59;;;;;;;11.93;4.83;;;;;;;5.57;46.01;99397.97;6072790;23;20154;-90
2023/03/14 01:21:29;;;;;;;9.87;4.07;;;;;;;5.37;46.87;99395.06;6097868;23;20149;-89
2023/03/14 01:23:58;;;;;;;11.03;4.27;;;;;;;5.23;46.90;99392.00;6072607;23;20162;-89
2023/03/14 01:26:27;;;;;;;12.53;5.17;;;;;;;5.17;46.84;99394.75;6098168;23;20584;-89
2023/03/14 01:28:55;;;;;;;9.17;4.30;;;;;;;5.11;47.42;99397.50;6098054;23;20161;-90
2023/03/14 01:31:20;;;;;;;10.30;4.53;;;;;;;5.05;47.92;99395.09;6072656;23;20558;-89
2023/03/14 01:33:46;;;;;;;10.20;3.63;;;;;;;5.01;47.76;99390.84;6097709;23;20150;-90
2023/03/14 01:36:12;;;;;;;12.33;4.20;;;;;;;4.98;47.40;99390.94;6097648;23;20149;-90
2023/03/14 01:38:39;;;;;;;8.10;3.73;;;;;;;4.94;47.69;99379.78;6097696;23;20534;-90
2023/03/14 01:41:11;;;;;;;7.47;3.90;;;;;;;4.93;48.69;99385.00;6097677;23;20148;-89
2023/03/14 01:43:38;;;;;;;7.57;3.47;;;;;;;4.92;48.17;99385.91;6072547;23;20489;-90
2023/03/14 01:46:03;;;;;;;8.70;3.87;;;;;;;4.92;48.27;99385.91;6097464;23;20177;-89
2023/03/14 01:48:35;;;;;;;8.77;3.77;;;;;;;4.86;48.14;99380.88;6097512;23;20613;-90
2023/03/14 01:51:02;;;;;;;12.13;3.63;;;;;;;4.86;47.68;99373.09;6098053;23;20146;-90
2023/03/14 01:53:28;;;;;;;7.20;3.20;;;;;;;4.82;47.82;99372.28;6097917;23;20577;-90
2023/03/14 01:55:57;;;;;;;7.77;3.37;;;;;;;4.76;47.74;99369.03;6072425;23;20177;-90
2023/03/14 01:58:27;;;;;;;8.00;3.20;;;;;;;4.71;47.86;99363.09;6072408;23;20230;-90
2023/03/14 02:00:53;;;;;;;10.13;3.23;;;;;;;4.73;47.29;99369.09;6098073;23;20186;-90
2023/03/14 02:03:23;;;;;;;5.23;3.07;;;;;;;4.71;47.13;99370.88;6097721;23;20159;-90
2023/03/14 02:05:51;;;;;;;8.37;2.80;;;;;;;4.68;47.81;99365.78;6072018;23;20196;-90
2023/03/14 02:08:22;;;;;;;7.37;3.33;;;;;;;4.75;46.88;99362.13;6072313;23;20554;-90
2023/03/14 02:10:49;;;;;;;8.33;3.53;;;;;;;4.78;46.99;99367.22;6097409;23;20160;-91
2023/03/14 02:13:18;;;;;;;7.37;3.33;;;;;;;4.79;46.58;99369.81;6072309;23;20229;-90
2023/03/14 02:15:44;;;;;;;10.03;3.10;;;;;;;4.75;46.88;99369.91;6098015;23;20433;-90
2023/03/14 02:18:12;;;;;;;7.50;3.43;;;;;;;4.72;47.05;99377.75;6097366;23;20160;-89
2023/03/14 02:21:08;;;;;;;8.20;3.63;;;;;;;4.59;47.41;99378.97;6097322;23;20451;-89
2023/03/14 02:23:50;;;;;;;4.93;2.73;;;;;;;4.48;47.89;99379.22;6085721;23;20232;-89
2023/03/14 02:26:36;;;;;;;5.93;3.47;;;;;;;4.43;47.82;99373.28;6097878;23;20169;-90
2023/03/14 02:29:03;;;;;;;11.93;3.30;;;;;;;4.42;47.82;99373.34;6097241;23;20141;-89
2023/03/14 02:31:29;;;;;;;6.10;2.83;;;;;;;4.35;48.22;99378.66;6072035;23;20152;-89
2023/03/14 02:33:57;;;;;;;11.07;2.97;;;;;;;4.29;48.42;99381.44;6097096;23;20456;-89
2023/03/14 02:36:23;;;;;;;7.03;3.27;;;;;;;4.29;47.99;99378.84;6097082;23;20164;-90
2023/03/14 02:38:58;;;;;;;8.73;3.07;;;;;;;4.31;48.02;99382.25;6071831;23;20192;-89
2023/03/14 02:41:23;;;;;;;7.37;2.93;;;;;;;4.32;48.12;99383.94;6097455;23;20532;-90
2023/03/14 02:43:50;;;;;;;8.80;3.60;;;;;;;4.29;48.10;99378.84;6097436;23;20152;-89
2023/03/14 02:46:20;;;;;;;11.63;3.23;;;;;;;4.22;48.62;99371.19;6072158;23;20250;-89
2023/03/14 02:48:55;;;;;;;4.87;2.60;;;;;;;4.23;48.73;99370.31;6072850;23;20159;-89
2023/03/14 02:51:23;;;;;;;10.40;3.83;;;;;;;4.19;48.85;99377.31;6097021;23;20464;-90
2023/03/14 02:53:50;;;;;;;4.67;2.57;;;;;;;4.19;48.73;99374.72;6097002;23;20223;-90
2023/03/14 02:56:15;;;;;;;8.23;3.60;;;;;;;4.19;48.57;99369.53;6097293;23;20149;-89
2023/03/14 02:58:42;;;;;;;7.23;3.00;;;;;;;4.14;49.09;99367.97;6097273;23;20632;-89
2023/03/14 03:01:09;;;;;;;7.60;3.13;;;;;;;4.08;48.98;99376.72;6072203;23;20168;-89
2023/03/14 03:03:34;;;;;;;5.03;2.57;;;;;;;4.08;48.90;99368.09;6096938;23;20149;-89
2023/03/14 03:06:00;;;;;;;10.13;3.10;;;;;;;4.17;48.47;99367.88;6072138;23;20196;-90
2023/03/14 03:08:28;;;;;;;12.90;3.50;;;;;;;4.19;47.88;99364.34;6096939;23;20172;-89
2023/03/14 03:10:57;;;;;;;8.63;3.67;;;;;;;4.17;47.62;99360.94;6096836;23;20181;-88
2023/03/14 03:13:24;;;;;;;5.77;2.87;;;;;;;4.01;48.50;99367.38;6096856;23;20168;-88
2023/03/14 03:15:49;;;;;;;6.33;2.70;;;;;;;3.96;48.58;99368.34;6096857;23;20187;-90
2023/03/14 03:18:15;;;;;;;7.13;3.03;;;;;;;4.02;48.33;99363.03;6097265;23;20163;-89
2023/03/14 03:20:40;;;;;;;6.27;3.03;;;;;;;3.95;48.94;99362.34;6096885;23;20152;-89
2023/03/14 03:23:07;;;;;;;4.37;2.10;;;;;;;3.88;49.23;99363.34;6097154;23;20148;-89
2023/03/14 03:25:32;;;;;;;7.17;3.03;;;;;;;3.85;48.70;99358.25;6071659;23;20298;-90
2023/03/14 03:28:01;;;;;;;6.93;2.40;;;;;;;3.90;49.03;99348.63;6071586;23;20535;-89
2023/03/14 03:30:27;;;;;;;7.40;3.13;;;;;;;3.93;48.97;99352.88;6071499;23;20232;-89
2023/03/14 03:32:53;;;;;;;4.70;2.80;;;;;;;3.87;49.35;99356.47;6097036;23;20648;-90
2023/03/14 03:35:18;;;;;;;4.50;2.23;;;;;;;3.84;50.12;99351.34;6096703;23;20153;-90
2023/03/14 03:37:44;;;;;;;5.73;2.63;;;;;;;3.85;50.40;99347.00;6097168;23;20157;-89
2023/03/14 03:40:10;;;;;;;5.10;2.60;;;;;;;3.87;50.60;99355.59;6097543;23;20196;-90
2023/03/14 03:42:36;;;;;;;6.23;2.80;;;;;;;3.83;50.61;99361.72;6098854;23;20153;-89
2023/03/14 03:45:02;;;;;;;13.97;4.03;;;;;;;3.80;50.53;99361.81;6098979;23;20623;-89
2023/03/14 03:47:31;;;;;;;8.10;3.00;;;;;;;3.78;50.53;99371.34;6099049;23;20176;-89
2023/03/14 03:49:56;;;;;;;6.13;2.97;;;;;;;3.75;50.07;99369.69;6098749;23;20252;-89
2023/03/14 03:52:22;;;;;;;7.77;2.63;;;;;;;3.71;50.21;99368.91;6073465;23;20598;-90
2023/03/14 03:54:47;;;;;;;9.40;3.47;;;;;;;3.69;50.54;99372.41;6073565;23;20178;-89
2023/03/14 03:57:15;;;;;;;6.73;2.77;;;;;;;3.70;50.02;99361.16;6073472;23;20164;-89
2023/03/14 03:59:40;;;;;;;5.43;2.37;;;;;;;3.61;50.36;99361.38;6098652;23;20249;-89
2023/03/14 04:02:06;;;;;;;7.57;2.93;;;;;;;3.61;49.93;99357.03;6073379;23;20530;-90
2023/03/14 04:04:32;;;;;;;11.17;3.77;;;;;;;3.64;50.23;99366.47;6098414;23;20188;-90
2023/03/14 04:06:58;;;;;;;9.33;3.40;;;;;;;3.64;50.07;99371.66;6074130;23;20616;-89
2023/03/14 04:09:24;;;;;;;4.93;2.60;;;;;;;3.61;50.71;99361.38;6098509;23;20156;-89
2023/03/14 04:11:50;;;;;;;7.30;2.80;;;;;;;3.59;49.81;99357.94;6098550;23;20153;-89
2023/03/14 04:14:16;;;;;;;7.97;3.07;;;;;;;3.64;50.21;99358.72;6098833;23;20454;-90
2023/03/14 04:16:41;;;;;;;7.67;3.30;;;;;;;3.73;49.02;99372.31;6098469;23;20164;-89
2023/03/14 04:19:07;;;;;;;3.80;1.83;;;;;;;3.70;49.00;99367.19;6098743;23;20163;-89
2023/03/14 04:21:32;;;;;;;6.87;2.33;;;;;;;3.60;49.22;99364.81;6098472;23;20450;-89
2023/03/14 04:23:59;;;;;;;8.80;2.77;;;;;;;3.51;49.48;99370.22;6099033;23;20148;-89
2023/03/14 04:26:26;;;;;;;5.60;2.63;;;;;;;3.44;50.10;99371.19;6098421;23;20160;-88
2023/03/14 04:28:52;;;;;;;9.33;3.97;;;;;;;3.43;50.03;99372.09;6099032;23;20228;-89
2023/03/14 04:31:21;;;;;;;5.20;2.67;;;;;;;3.42;50.67;99370.38;6073487;23;20163;-90
2023/03/14 04:33:47;;;;;;;5.80;2.70;;;;;;;3.40;50.43;99377.34;6073044;23;20152;-89
2023/03/14 04:36:13;;;;;;;4.20;2.70;;;;;;;3.41;50.75;99373.84;6073272;23;20161;-89
2023/03/14 04:38:39;;;;;;;4.30;2.43;;;;;;;3.42;51.14;99372.97;6072107;23;20236;-89
2023/03/14 04:41:06;;;;;;;8.80;3.00;;;;;;;3.38;51.36;99369.59;6071302;23;20168;-89
2023/03/14 04:43:33;;;;;;;4.93;2.77;;;;;;;3.36;50.61;99366.19;6096162;23;20149;-89
2023/03/14 04:46:00;;;;;;;8.10;3.17;;;;;;;3.38;51.12;99361.00;6097003;23;20183;-89
2023/03/14 04:48:28;;;;;;;5.47;2.80;;;;;;;3.36;51.46;99360.13;6096602;23;20692;-89
2023/03/14 04:50:53;;;;;;;18.33;7.40;;;;;;;3.33;51.54;99355.03;6097071;23;20235;-89
2023/03/14 04:53:19;;;;;;;20.70;10.30;;;;;;;3.35;50.93;99354.13;6072410;23;20248;-89
2023/03/14 04:55:50;;;;;;;31.60;13.17;;;;;;;3.35;51.13;99361.03;6074272;23;20508;-89
2023/03/14 04:58:17;;;;;;;25.57;11.37;;;;;;;3.40;50.94;99362.66;6073243;23;20580;-89
2023/03/14 05:00:42;;;;;;;26.93;11.93;;;;;;;3.43;50.99;99356.56;6073223;23;20163;-89
2023/03/14 05:03:10;;;;;;;20.73;10.20;;;;;;;3.41;51.07;99348.81;6073066;23;20160;-89
2023/03/14 05:05:37;;;;;;;24.20;8.90;;;;;;;3.41;50.79;99353.97;6097692;23;20214;-88
2023/03/14 05:08:04;;;;;;;21.57;8.70;;;;;;;3.44;50.98;99363.44;6098107;23;20243;-88
2023/03/14 05:10:31;;;;;;;16.87;7.73;;;;;;;3.42;51.41;99360.03;6072841;23;20153;-89
2023/03/14 05:12:56;;;;;;;16.60;7.50;;;;;;;3.47;50.85;99361.63;6097881;23;20153;-88
2023/03/14 05:15:23;;;;;;;8.13;3.77;;;;;;;3.41;50.92;99361.75;6073010;23;20492;-89
2023/03/14 05:17:50;;;;;;;7.30;4.70;;;;;;;3.48;50.60;99358.19;6072668;23;20160;-89
2023/03/14 05:20:17;;;;;;;11.90;4.20;;;;;;;3.55;50.80;99358.88;6098544;23;20148;-89
2023/03/14 05:22:43;;;;;;;6.73;3.23;;;;;;;3.54;51.00;99359.75;6073692;23;20603;-89
2023/03/14 05:25:10;;;;;;;8.73;4.33;;;;;;;3.59;51.26;99368.31;6072838;23;20199;-89
2023/03/14 05:27:37;;;;;;;22.97;4.30;;;;;;;3.66;51.16;99364.72;6097666;23;20157;-89
2023/03/14 05:30:06;;;;;;;9.90;3.67;;;;;;;3.72;51.32;99364.59;6097786;23;20161;-89
2023/03/14 05:32:33;;;;;;;7.37;4.23;;;;;;;3.81;50.89;99364.38;6072525;23;20577;-90
2023/03/14 05:34:59;;;;;;;11.30;5.10;;;;;;;3.94;51.06;99365.81;6072958;23;20148;-89
2023/03/14 05:37:26;;;;;;;14.00;5.87;;;;;;;4.07;50.52;99362.03;6072557;23;20577;-89
2023/03/14 05:39:53;;;;;;;11.83;6.30;;;;;;;4.56;50.76;99360.91;6073036;23;20457;-90
2023/03/14 05:42:19;;;;;;;10.57;5.00;;;;;;;5.51;50.06;99351.34;6097720;23;20236;-89
2023/03/14 05:44:46;;;;;;;9.27;5.37;;;;;;;6.90;47.37;99346.06;6072377;23;20617;-89
2023/03/14 05:47:13;;;;;;;8.33;3.93;;;;;;;8.51;43.90;99327.81;6072442;23;20162;-90
2023/03/14 05:49:39;;;;;;;13.90;5.57;;;;;;;9.53;41.10;99321.59;6073435;23;20155;-89
2023/03/14 05:52:05;;;;;;;17.63;5.53;;;;;;;10.14;40.92;99315.22;6072371;23;20186;-89
2023/03/14 05:54:32;;;;;;;16.13;7.23;;;;;;;11.19;38.85;99299.44;6073444;23;20156;-89
2023/03/14 05:56:59;;;;;;;11.03;6.40;;;;;;;12.53;36.82;99291.94;6072775;23;20163;-89
2023/03/14 05:59:26;;;;;;;12.63;6.13;;;;;;;13.82;34.25;99284.06;6097763;23;20194;-90
2023/03/14 06:01:52;;;;;;;17.87;7.10;;;;;;;15.00;31.96;99278.88;6073380;23;20162;-91
2023/03/14 06:04:19;;;;;;;15.70;5.83;;;;;;;16.04;30.41;99279.38;6072065;23;20493;-89
2023/03/14 06:06:46;;;;;;;14.03;6.10;;;;;;;17.24;29.34;99271.19;6097329;23;20228;-89
2023/03/14 06:09:13;;;;;;;11.57;4.90;;;;;;;18.88;27.42;99256.00;6072573;23;20158;-89
2023/03/14 06:11:38;;;;;;;15.53;5.50;;;;;;;20.28;25.16;99257.88;6097390;23;20156;-89
2023/03/14 06:14:05;;;;;;;11.60;5.23;;;;;;;21.42;24.32;99255.09;6097364;23;20188;-88
2023/03/14 06:16:32;;;;;;;9.33;5.23;;;;;;;22.52;23.12;99245.19;6097322;23;20151;-87
2023/03/14 06:18:58;;;;;;;10.03;5.50;;;;;;;23.46;22.32;99241.75;6097326;23;20175;-88
2023/03/14 06:21:28;;;;;;;8.53;3.93;;;;;;;24.00;21.69;99251.19;6097612;23;20152;-88
2023/03/14 06:23:55;;;;;;;11.73;4.73;;;;;;;24.46;21.44;99247.13;6097918;23;20157;-88
2023/03/14 06:26:23;;;;;;;11.13;4.73;;;;;;;24.79;21.51;99251.50;6097099;23;20176;-87
2023/03/14 06:28:50;;;;;;;7.10;3.90;;;;;;;25.27;21.18;99250.63;6097549;23;20152;-86
2023/03/14 06:31:17;;;;;;;8.93;4.53;;;;;;;26.00;20.66;99242.34;6097607;23;20164;-86
2023/03/14 06:33:43;;;;;;;10.20;4.33;;;;;;;26.55;19.51;99242.19;6097242;23;20152;-86
2023/03/14 06:36:08;;;;;;;10.77;4.90;;;;;;;27.02;19.04;99250.09;6097203;23;20155;-89
2023/03/14 06:38:34;;;;;;;7.80;4.53;;;;;;;27.47;18.99;99243.75;6071982;23;20167;-86
2023/03/14 06:41:04;;;;;;;12.77;6.10;;;;;;;27.73;18.39;99249.50;6097163;23;20163;-86
2023/03/14 06:43:30;;;;;;;7.00;4.57;;;;;;;27.80;18.91;99256.66;6097133;23;20167;-86
2023/03/14 06:45:55;;;;;;;7.53;4.23;;;;;;;27.73;18.97;99260.25;6096989;23;20267;-86
2023/03/14 06:48:21;;;;;;;6.47;3.50;;;;;;;27.62;18.86;99248.09;6097019;23;20159;-86
2023/03/14 06:50:48;;;;;;;5.97;2.77;;;;;;;27.46;18.83;99252.84;6097453;23;20235;-86
2023/03/14 06:53:13;;;;;;;5.17;2.17;;;;;;;26.86;19.47;99255.59;6069736;23;20301;-86
2023/03/14 06:55:38;;;;;;;4.53;2.20;;;;;;;25.22;20.87;99265.56;6069434;23;20561;-86
2023/03/14 06:58:04;;;;;;;4.13;2.00;;;;;;;24.62;21.22;99265.06;6094586;23;20305;-86
2023/03/14 07:00:30;;;;;;;3.73;2.30;;;;;;;24.21;21.21;99269.53;6094546;23;20180;-87
2023/03/14 07:02:55;;;;;;;7.10;2.67;;;;;;;23.80;21.46;99274.69;6069675;23;20484;-88
2023/03/14 07:05:21;;;;;;;5.17;1.93;;;;;;;22.33;21.67;99267.53;6069935;23;20607;-87
2023/03/14 07:07:46;;;;;;;4.90;1.97;;;;;;;21.79;22.73;99275.56;6071385;23;20507;-88
2023/03/14 07:10:11;;;;;;;3.97;2.17;;;;;;;21.15;23.63;99273.69;6072106;23;20158;-87
2023/03/14 07:12:37;;;;;;;4.77;1.93;;;;;;;21.18;24.49;99270.75;6072089;23;20249;-88
2023/03/14 07:15:02;;;;;;;4.30;1.63;;;;;;;20.48;24.40;99273.72;6097069;23;20156;-88
2023/03/14 07:17:28;;;;;;;4.27;2.50;;;;;;;19.98;25.65;99278.25;6097208;23;20158;-89
2023/03/14 07:19:53;;;;;;;7.00;2.43;;;;;;;19.48;26.66;99280.03;6096817;23;20304;-91
2023/03/14 07:22:19;;;;;;;6.83;1.90;;;;;;;19.15;25.26;99274.09;6071758;23;20252;-90
2023/03/14 07:24:44;;;;;;;5.23;1.80;;;;;;;18.73;25.53;99268.78;6071597;23;20186;-90
2023/03/14 07:27:09;;;;;;;8.87;2.30;;;;;;;18.48;27.31;99268.28;6096887;23;20155;-90
2023/03/14 07:29:35;;;;;;;5.30;1.93;;;;;;;18.01;26.60;99275.63;6072096;23;20191;-90
2023/03/14 07:32:00;;;;;;;4.93;2.23;;;;;;;17.82;28.79;99277.25;6096858;23;20159;-89
2023/03/14 07:34:26;;;;;;;3.17;1.60;;;;;;;17.59;28.10;99271.09;6096814;23;20165;-89
2023/03/14 07:36:51;;;;;;;3.07;1.70;;;;;;;17.32;28.64;99274.06;6096880;23;20158;-89
2023/03/14 07:39:17;;;;;;;4.67;2.10;;;;;;;17.15;28.94;99267.44;6071661;23;20231;-89
2023/03/14 07:41:42;;;;;;;2.97;1.20;;;;;;;16.62;28.98;99269.81;6071708;23;20249;-88
2023/03/14 07:44:07;;;;;;;3.10;1.40;;;;;;;16.25;28.90;99275.19;6072036;23;20159;-89
2023/03/14 07:46:33;;;;;;;4.23;1.33;;;;;;;16.09;29.80;99271.97;6096809;23;20160;-88
2023/03/14 07:48:58;;;;;;;6.67;1.83;;;;;;;16.03;30.75;99266.28;6097191;23;20160;-88
2023/03/14 07:51:24;;;;;;;3.83;1.30;;;;;;;15.83;30.31;99262.44;6096884;23;20152;-88
2023/03/14 07:53:49;;;;;;;2.93;1.77;;;;;;;15.21;30.16;99265.06;6072058;23;20257;-88
2023/03/14 07:56:14;;;;;;;4.27;1.17;;;;;;;15.11;31.22;99261.38;6072004;23;20162;-89
2023/03/14 07:58:40;;;;;;;3.17;1.53;;;;;;;15.10;31.16;99258.81;6071654;23;20165;-88
2023/03/14 08:01:05;;;;;;;3.03;1.40;;;;;;;15.08;31.57;99250.16;6071571;23;20168;-88
2023/03/14 08:03:31;;;;;;;2.97;1.70;;;;;;;14.90;33.49;99260.19;6097486;23;20263;-88
2023/03/14 08:05:56;;;;;;;4.37;1.77;;;;;;;15.09;34.22;99252.72;6097014;23;20217;-88
2023/03/14 08:08:22;;;;;;;4.87;1.33;;;;;;;15.23;32.85;99249.09;6071967;23;20152;-88
2023/03/14 08:10:47;;;;;;;2.60;1.30;;;;;;;14.83;31.37;99250.16;6097028;23;20571;-88
2023/03/14 08:13:13;;;;;;;3.50;1.37;;;;;;;14.85;31.13;99246.47;6071571;23;20663;-88
2023/03/14 08:15:38;;;;;;;6.53;1.77;;;;;;;15.11;32.23;99244.66;6097393;23;20242;-89
2023/03/14 08:18:05;;;;;;;3.87;1.17;;;;;;;15.12;30.97;99238.44;6096717;23;20479;-88
2023/03/14 08:20:30;;;;;;;7.17;1.63;;;;;;;15.27;31.30;99232.94;6097368;23;20224;-88
2023/03/14 08:22:57;;;;;;;6.70;1.80;;;;;;;15.37;31.36;99228.69;6071946;23;20157;-88
2023/03/14 08:25:23;;;;;;;4.37;1.40;;;;;;;15.47;29.73;99228.91;6071376;23;20196;-89
2023/03/14 08:27:48;;;;;;;5.03;1.57;;;;;;;15.69;30.32;99222.94;6073170;23;20583;-89
2023/03/14 08:30:15;;;;;;;3.70;1.40;;;;;;;15.71;29.04;99221.88;6073522;23;20156;-89
2023/03/14 08:32:41;;;;;;;3.77;1.67;;;;;;;15.76;31.33;99209.19;6073132;23;20161;-89
2023/03/14 08:35:08;;;;;;;4.47;1.30;;;;;;;15.74;29.41;99207.59;6073135;23;20608;-89
2023/03/14 08:37:35;;;;;;;7.13;2.50;;;;;;;15.74;29.57;99202.31;6098713;23;20154;-89
2023/03/14 08:40:01;;;;;;;3.63;1.80;;;;;;;15.75;29.53;99204.00;6074421;23;20152;-89
2023/03/14 08:42:26;;;;;;;3.50;1.50;;;;;;;15.83;30.98;99199.00;6074125;23;20157;-89
2023/03/14 08:44:52;;;;;;;4.93;1.80;;;;;;;15.24;29.58;99198.81;6073344;23;20577;-89
2023/03/14 08:47:18;;;;;;;9.13;1.33;;;;;;;14.99;30.59;99196.19;6073443;23;20156;-89
2023/03/14 08:49:43;;;;;;;5.73;1.83;;;;;;;14.68;29.99;99199.25;6099139;23;20164;-88
2023/03/14 08:52:09;;;;;;;5.50;1.70;;;;;;;14.88;29.33;99196.13;6073302;23;20503;-89
2023/03/14 08:54:34;;;;;;;3.30;1.57;;;;;;;14.77;27.71;99196.00;6096932;23;20492;-88
2023/03/14 08:57:00;;;;;;;6.97;1.40;;;;;;;14.80;28.77;99195.81;6098826;23;20237;-89
2023/03/14 08:59:25;;;;;;;5.67;2.10;;;;;;;15.13;30.27;99179.41;6073700;23;20617;-89
2023/03/14 09:01:51;;;;;;;3.90;1.93;;;;;;;15.35;29.46;99185.72;6072906;23;20224;-89
2023/03/14 09:04:16;;;;;;;7.73;2.33;;;;;;;15.64;30.65;99175.72;6098253;23;20233;-89
2023/03/14 09:06:42;;;;;;;4.17;1.93;;;;;;;15.34;28.92;99181.38;6073461;23;20182;-89
2023/03/14 09:09:10;;;;;;;5.47;2.03;;;;;;;15.71;30.75;99173.47;6074215;23;20166;-88
2023/03/14 09:11:35;;;;;;;11.40;2.17;;;;;;;15.91;30.14;99167.56;6073425;23;20158;-89
2023/03/14 09:14:01;;;;;;;8.10;3.47;;;;;;;15.79;29.75;99166.69;6073135;23;20518;-88
2023/03/14 09:16:26;;;;;;;5.10;2.50;;;;;;;16.01;30.77;99168.56;6072282;23;20170;-89
2023/03/14 09:18:57;;;;;;;6.40;1.83;;;;;;;16.06;30.33;99155.88;6072794;23;20163;-90
2023/03/14 09:21:22;;;;;;;5.63;1.90;;;;;;;16.21;31.23;99152.06;6098204;23;20133;-88
2023/03/14 09:23:48;;;;;;;5.37;2.27;;;;;;;16.11;30.47;99153.72;6098166;23;20155;-88
2023/03/14 09:26:14;;;;;;;4.57;1.67;;;;;;;16.38;30.66;99148.13;6072500;23;20268;-89
2023/03/14 09:28:39;;;;;;;9.23;2.30;;;;;;;16.58;30.05;99139.56;6098163;23;20150;-89
2023/03/14 09:31:07;;;;;;;3.87;1.70;;;;;;;16.63;28.91;99141.84;6098462;23;20229;-89
2023/03/14 09:33:33;;;;;;;3.57;1.57;;;;;;;16.54;28.77;99135.44;6097675;23;20158;-89
2023/03/14 09:35:59;;;;;;;7.53;2.20;;;;;;;16.56;28.84;99130.91;6097688;23;20548;-89
2023/03/14 09:38:25;;;;;;;5.97;2.33;;;;;;;16.56;27.66;99123.78;6098081;23;20180;-90
2023/03/14 09:40:51;;;;;;;6.47;1.70;;;;;;;16.47;26.89;99121.84;6097774;23;20160;-89
2023/03/14 09:43:16;;;;;;;24.93;2.50;;;;;;;16.45;27.74;99115.81;6097717;23;20576;-89
2023/03/14 09:45:45;;;;;;;4.73;1.87;;;;;;;16.58;26.32;99111.31;6097640;23;20177;-88
2023/03/14 09:48:19;;;;;;;4.50;2.07;;;;;;;16.79;27.22;99105.28;6072547;23;20167;-89
2023/03/14 09:51:16;;;;;;;5.37;2.57;;;;;;;17.07;26.52;99104.78;6098330;23;20244;-89
2023/03/14 09:53:46;;;;;;;4.37;2.63;;;;;;;16.65;26.74;99098.41;6072818;23;20184;-89
2023/03/14 09:56:18;;;;;;;3.90;1.43;;;;;;;16.83;26.57;99098.78;6072464;23;20156;-88
2023/03/14 09:58:49;;;;;;;6.67;1.53;;;;;;;16.69;24.26;99094.59;6097468;23;20147;-89
2023/03/14 10:01:20;;;;;;;6.53;1.90;;;;;;;16.02;24.60;99098.88;6071116;23;20156;-89
2023/03/14 10:03:46;;;;;;;4.57;1.30;;;;;;;16.02;26.52;99084.81;6097764;23;20136;-89
2023/03/14 10:06:13;;;;;;;2.90;1.30;;;;;;;16.73;27.10;99079.28;6097170;23;20639;-89
2023/03/14 10:08:44;;;;;;;3.43;1.57;;;;;;;17.18;26.14;99067.69;6097393;23;20159;-89
2023/03/14 10:11:18;;;;;;;3.40;1.40;;;;;;;17.54;25.69;99066.53;6097595;23;20156;-88
2023/03/14 10:14:04;;;;;;;2.00;1.33;;;;;;;17.94;25.45;99064.94;6097372;23;20580;-88
2023/03/14 10:16:32;;;;;;;4.43;1.57;;;;;;;17.76;23.58;99054.06;6073574;23;20177;-89
2023/03/14 10:19:10;;;;;;;5.90;1.93;;;;;;;17.86;24.64;99055.94;6097297;23;20149;-90
2023/03/14 10:21:41;;;;;;;10.33;2.30;;;;;;;18.26;22.90;99044.47;6097241;23;20197;-89
2023/03/14 10:24:28;;;;;;;3.03;1.20;;;;;;;17.12;22.71;99049.66;6097237;23;20157;-90
2023/03/14 10:26:58;;;;;;;4.47;1.70;;;;;;;17.15;23.41;99049.41;6096979;23;20188;-89
2023/03/14 10:29:23;;;;;;;4.03;1.70;;;;;;;17.69;23.89;99044.91;6071906;23;20494;-89
2023/03/14 10:31:52;;;;;;;3.17;1.30;;;;;;;17.92;24.69;99035.06;6072006;23;20155;-89
2023/03/14 10:34:24;;;;;;;2.80;1.10;;;;;;;18.27;24.01;99019.63;6097095;23;20157;-89
2023/03/14 10:36:59;;;;;;;4.13;1.63;;;;;;;18.58;23.18;99017.84;6072041;23;20476;-89
2023/03/14 10:39:37;;;;;;;4.20;1.70;;;;;;;18.38;23.86;99016.03;6072018;23;20148;-89
2023/03/14 10:42:20;;;;;;;7.53;1.77;;;;;;;18.68;22.92;99000.16;6072104;23;20161;-89
2023/03/14 10:44:50;;;;;;;3.00;1.40;;;;;;;18.91;23.48;98992.81;6097677;23;20178;-90
2023/03/14 10:47:22;;;;;;;3.13;1.37;;;;;;;18.44;22.65;98983.69;6097018;23;20155;-90
2023/03/14 10:49:47;;;;;;;3.27;1.30;;;;;;;18.27;25.07;98986.94;6096647;23;20233;-89
2023/03/14 10:52:22;;;;;;;8.03;1.23;;;;;;;18.23;23.61;98972.25;6097437;23;20202;-89
2023/03/14 10:54:59;;;;;;;6.33;1.63;;;;;;;17.76;24.71;98971.03;6097021;23;20144;-89
2023/03/14 10:57:26;;;;;;;2.87;1.27;;;;;;;18.17;25.31;98965.66;6097371;23;20148;-89
2023/03/14 10:59:53;;;;;;;2.97;0.97;;;;;;;18.44;24.70;98949.19;6096977;23;20163;-89
2023/03/14 11:02:36;;;;;;;3.30;1.17;;;;;;;18.50;24.68;98940.69;6071747;23;20156;-89
2023/03/14 11:05:34;;;;;;;3.27;1.20;;;;;;;17.94;25.96;98942.09;6096834;23;20258;-89
2023/03/14 11:08:20;;;;;;;1.90;0.90;;;;;;;18.58;25.77;98927.56;6097275;23;20219;-89
2023/03/14 11:10:51;;;;;;;8.63;5.40;;;;;;;19.13;25.32;98922.66;6097240;23;20600;-89
2023/03/14 11:13:30;;;;;;;4.30;1.20;;;;;;;19.46;25.26;98914.25;6097241;23;20144;-88
2023/03/14 11:16:14;;;;;;;5.87;1.20;;;;;;;19.41;23.36;98903.22;6073104;23;20223;-89
2023/03/14 11:18:54;;;;;;;4.40;1.53;;;;;;;19.06;23.69;98894.94;6096905;23;20241;-90
2023/03/14 11:21:37;;;;;;;4.67;1.43;;;;;;;18.88;24.69;98881.53;6071807;23;20467;-89
2023/03/14 11:24:27;;;;;;;2.63;0.87;;;;;;;19.48;24.27;98883.06;6071832;23;20179;-90
2023/03/14 11:27:03;;;;;;;2.23;0.93;;;;;;;19.75;24.80;98861.88;6097251;23;20156;-89
2023/03/14 11:29:44;;;;;;;2.30;1.00;;;;;;;18.99;25.14;98873.41;6097264;23;20136;-89
2023/03/14 11:32:41;;;;;;;4.30;0.93;;;;;;;19.66;25.70;98857.41;6097519;23;20152;-90
2023/03/14 11:35:22;;;;;;;2.07;0.90;;;;;;;19.91;23.82;98843.47;6071794;23;20197;-90
2023/03/14 11:37:54;;;;;;;2.90;1.07;;;;;;;19.54;24.28;98846.13;6097521;23;20216;-89
2023/03/14 11:40:23;;;;;;;2.60;0.90;;;;;;;19.10;24.55;98843.22;6097690;23;20157;-90